Time;durP1;ratioP1;P1;durP2;ratioP2;P2;SDS_P1;SDS_P2;PMS_P1;PMS_P2;Temp;Humidity;BMP_temperature;BMP_pressure;BME280_temperature;BME280_humidity;BME280_pressure;Samples;Min_cycle;Max_cycle;Signal;HPM_P1;HPM_P2
2022/09/04 00:01:17;;;;;;;5.20;1.63;;;;;;;17.11;62.60;101572.94;5021617;28;20052;-79
2022/09/04 00:03:59;;;;;;;3.63;1.33;;;;;;;17.07;62.24;101565.91;5009760;28;20038;-78
2022/09/04 00:06:37;;;;;;;6.53;1.50;;;;;;;17.04;63.04;101573.91;5018089;28;20422;-79
2022/09/04 00:09:25;;;;;;;1.52;1.20;;;;;;;17.02;62.83;101573.06;4990913;28;20165;-79
2022/09/04 00:12:07;;;;;;;3.25;1.50;;;;;;;16.97;62.99;101563.38;5001684;28;20049;-78
2022/09/04 00:14:44;;;;;;;4.75;1.40;;;;;;;16.97;63.23;101560.69;5018906;28;20037;-79
2022/09/04 00:17:45;;;;;;;4.47;1.50;;;;;;;16.94;63.53;101564.28;5027253;28;20048;-78
2022/09/04 00:20:34;;;;;;;3.08;1.30;;;;;;;16.92;63.53;101566.09;4988813;28;20062;-78
2022/09/04 00:23:15;;;;;;;6.10;1.48;;;;;;;16.90;63.48;101562.53;5011862;28;20068;-78
2022/09/04 00:25:49;;;;;;;;;;;;;;;16.85;64.27;101570.59;4981492;28;20046;-79
2022/09/04 00:28:41;;;;;;;2.60;1.30;;;;;;;16.86;63.46;101571.47;5029595;28;19928;-78
2022/09/04 00:31:37;;;;;;;2.45;1.50;;;;;;;16.84;63.99;101575.94;5006231;28;21102;-78
2022/09/04 00:34:18;;;;;;;1.38;1.08;;;;;;;16.80;63.99;101575.03;5009874;28;20057;-79
2022/09/04 00:36:53;;;;;;;2.80;1.70;;;;;;;16.76;63.96;101571.53;4992168;28;20034;-79
2022/09/04 00:39:39;;;;;;;5.00;1.60;;;;;;;16.74;63.87;101583.97;5025521;28;20053;-79
2022/09/04 00:42:42;;;;;;;1.48;1.38;;;;;;;16.72;64.18;101580.44;4982330;28;20402;-79
2022/09/04 00:45:23;;;;;;;2.78;1.30;;;;;;;16.70;64.08;101589.34;5006576;28;20038;-78
2022/09/04 00:47:55;;;;;;;6.38;1.48;;;;;;;16.68;64.50;101592.03;4993897;28;20442;-78
2022/09/04 00:50:36;;;;;;;1.98;1.63;;;;;;;16.65;65.05;101592.06;4986398;28;20042;-78
2022/09/04 00:53:27;;;;;;;5.43;1.58;;;;;;;16.61;65.28;101590.31;4989637;28;20038;-79
2022/09/04 00:56:38;;;;;;;2.95;1.58;;;;;;;16.57;65.22;101592.13;4986111;28;20049;-79
2022/09/04 00:59:25;;;;;;;;;;;;;;;16.55;65.56;101590.41;4975894;28;20045;-79
2022/09/04 01:02:11;;;;;;;4.13;1.20;;;;;;;16.52;65.11;101596.63;4994334;28;19930;-78
2022/09/04 01:05:06;;;;;;;;;;;;;;;16.51;66.63;101599.31;4987796;28;20042;-79
2022/09/04 01:07:47;;;;;;;1.45;1.02;;;;;;;16.48;65.35;101610.88;4993625;28;20140;-80
2022/09/04 01:10:18;;;;;;;1.98;1.30;;;;;;;16.47;66.11;101613.53;5003165;28;20057;-79
2022/09/04 01:12:58;;;;;;;8.55;1.85;;;;;;;16.46;66.19;101609.09;4960771;28;20045;-78
2022/09/04 01:15:36;;;;;;;1.67;1.40;;;;;;;16.45;66.30;101610.00;5004611;28;20046;-80
2022/09/04 01:18:09;;;;;;;3.50;1.45;;;;;;;16.42;66.38;101618.00;4980553;28;20038;-78
2022/09/04 01:20:53;;;;;;;2.20;1.60;;;;;;;16.38;66.95;101617.16;5003584;28;20042;-78
2022/09/04 01:23:49;;;;;;;6.70;2.00;;;;;;;16.36;66.61;101619.81;4991721;28;20424;-78
2022/09/04 01:26:31;;;;;;;6.55;1.30;;;;;;;16.35;66.77;101628.72;4985386;28;20889;-79
2022/09/04 01:29:25;;;;;;;4.32;1.25;;;;;;;16.35;67.26;101628.72;4961323;28;20050;-79
2022/09/04 01:32:40;;;;;;;3.75;1.60;;;;;;;16.34;67.70;101637.56;5002696;28;20113;-78
2022/09/04 01:35:30;;;;;;;1.65;1.40;;;;;;;16.32;67.50;101636.69;4978234;28;20045;-79
2022/09/04 01:38:24;;;;;;;3.58;1.35;;;;;;;16.30;67.53;101632.31;4981151;28;20042;-79
2022/09/04 01:41:06;;;;;;;1.40;1.30;;;;;;;16.31;67.99;101634.03;4976573;28;20392;-78
2022/09/04 01:43:35;;;;;;;2.47;1.45;;;;;;;16.27;67.70;101646.47;4972706;28;20138;-79
2022/09/04 01:46:25;;;;;;;2.63;1.67;;;;;;;16.26;68.26;101638.53;5012939;28;20050;-79
2022/09/04 01:49:01;;;;;;;2.33;1.40;;;;;;;16.23;68.24;101639.44;4989159;28;20466;-78
2022/09/04 01:51:36;;;;;;;1.40;1.30;;;;;;;16.22;68.16;101643.00;5018687;28;20053;-78
2022/09/04 01:54:36;;;;;;;2.97;1.45;;;;;;;16.20;68.37;101641.22;4984692;28;20037;-78
2022/09/04 01:57:06;;;;;;;2.50;1.63;;;;;;;16.16;68.10;101641.25;4989662;28;20411;-80
2022/09/04 01:59:56;;;;;;;6.90;1.85;;;;;;;16.14;68.56;101635.09;4939544;28;20160;-80
2022/09/04 02:02:35;;;;;;;1.92;1.40;;;;;;;16.12;68.79;101638.63;4983400;28;20403;-79
2022/09/04 02:05:30;;;;;;;2.70;1.40;;;;;;;16.10;68.60;101646.59;4994468;28;20042;-80
2022/09/04 02:08:28;;;;;;;2.38;1.65;;;;;;;16.09;68.69;101649.31;4970465;28;20400;-78
2022/09/04 02:11:20;;;;;;;5.75;1.50;;;;;;;16.05;70.23;101653.75;4986841;28;20051;-78
2022/09/04 02:14:18;;;;;;;3.85;1.80;;;;;;;16.02;70.17;101644.91;4972768;28;20037;-79
2022/09/04 02:17:07;;;;;;;1.70;1.38;;;;;;;16.00;70.30;101658.22;4967291;28;20269;-78
2022/09/04 02:19:42;;;;;;;3.03;1.80;;;;;;;15.97;70.62;101651.16;4993424;28;20090;-79
2022/09/04 02:22:49;;;;;;;1.95;1.50;;;;;;;15.96;70.91;101659.13;5006325;28;20056;-78
2022/09/04 02:25:36;;;;;;;2.30;1.50;;;;;;;15.94;71.46;101655.59;4987429;28;20104;-78
2022/09/04 02:28:42;;;;;;;6.63;1.73;;;;;;;15.92;71.42;101657.38;4981624;28;20038;-78
2022/09/04 02:31:34;;;;;;;2.63;1.45;;;;;;;15.90;71.15;101659.16;4968624;28;20543;-78
2022/09/04 02:34:09;;;;;;;4.53;2.20;;;;;;;15.87;70.85;101652.06;4997766;28;20251;-78
2022/09/04 02:36:47;;;;;;;3.47;1.48;;;;;;;15.84;71.23;101648.56;4985642;28;20048;-78
2022/09/04 02:39:27;;;;;;;2.53;1.63;;;;;;;15.83;71.80;101660.09;4985834;28;20506;-77
2022/09/04 02:41:57;;;;;;;2.88;1.90;;;;;;;15.80;71.70;101645.03;4983836;28;20407;-79
2022/09/04 02:44:48;;;;;;;4.23;1.73;;;;;;;15.77;71.70;101640.63;5008030;28;20033;-78
2022/09/04 02:47:41;;;;;;;2.28;1.65;;;;;;;15.76;72.37;101644.19;4999266;28;20288;-78
2022/09/04 02:50:16;;;;;;;2.78;1.60;;;;;;;15.74;71.76;101650.38;5013517;28;20577;-78
2022/09/04 02:53:06;;;;;;;3.80;1.60;;;;;;;15.72;72.13;101647.69;5008517;28;20406;-79
2022/09/04 02:55:46;;;;;;;3.30;1.73;;;;;;;15.70;72.35;101654.78;5008168;28;20494;-78
2022/09/04 02:58:42;;;;;;;2.35;1.95;;;;;;;15.70;72.97;101656.56;5000046;28;20037;-78
2022/09/04 03:01:42;;;;;;;3.92;1.70;;;;;;;15.68;73.35;101658.34;4972354;28;20380;-78
2022/09/04 03:04:38;;;;;;;2.70;1.70;;;;;;;15.65;73.65;101651.31;5004471;28;20137;-79
2022/09/04 03:07:19;;;;;;;1.92;1.45;;;;;;;15.64;73.82;101659.28;5009319;28;20338;-79
2022/09/04 03:09:59;;;;;;;1.55;1.42;;;;;;;15.62;74.10;101655.75;4999066;28;20044;-79
2022/09/04 03:12:44;;;;;;;2.40;1.48;;;;;;;15.59;73.59;101661.94;5026559;28;20056;-79
2022/09/04 03:15:26;;;;;;;2.15;1.55;;;;;;;15.57;74.27;101659.28;4974116;28;20242;-79
2022/09/04 03:18:05;;;;;;;3.63;1.67;;;;;;;15.55;74.12;101661.06;4987363;28;20053;-79
2022/09/04 03:20:43;;;;;;;2.63;1.30;;;;;;;15.52;74.65;101655.78;5002857;28;20048;-78
2022/09/04 03:23:22;;;;;;;1.73;1.40;;;;;;;15.51;74.58;101656.66;5001320;28;20050;-78
2022/09/04 03:26:12;;;;;;;2.45;1.50;;;;;;;15.51;74.71;101659.31;5005170;28;20387;-79
2022/09/04 03:28:50;;;;;;;1.60;1.50;;;;;;;15.48;75.32;101669.06;5024934;28;20366;-78
2022/09/04 03:31:19;;;;;;;2.92;1.65;;;;;;;15.46;75.19;101666.41;4976889;28;20064;-80
2022/09/04 03:34:24;;;;;;;4.32;1.88;;;;;;;15.46;75.66;101666.41;4982426;28;20054;-79
2022/09/04 03:37:34;;;;;;;2.88;2.00;;;;;;;15.46;75.67;101670.84;4983568;28;20046;-78
2022/09/04 03:40:23;;;;;;;5.68;1.67;;;;;;;15.43;76.20;101669.09;4961741;28;20043;-78
2022/09/04 03:43:07;;;;;;;2.88;1.52;;;;;;;15.42;75.89;101672.63;5026041;28;20549;-79
2022/09/04 03:45:44;;;;;;;1.65;1.55;;;;;;;15.42;76.00;101679.72;5019882;28;20049;-78
2022/09/04 03:48:31;;;;;;;4.50;1.60;;;;;;;15.39;75.55;101684.16;4978132;28;20490;-78
2022/09/04 03:51:09;;;;;;;2.97;2.10;;;;;;;15.38;75.97;101678.84;5019124;28;20057;-78
2022/09/04 03:53:55;;;;;;;2.20;1.48;;;;;;;15.35;76.09;101682.41;4977056;28;20038;-79
2022/09/04 03:57:02;;;;;;;1.85;1.75;;;;;;;15.34;76.65;101683.28;5016780;28;20038;-78
2022/09/04 04:00:08;;;;;;;4.07;1.77;;;;;;;15.32;76.83;101689.50;5022906;28;20059;-80
2022/09/04 04:03:07;;;;;;;5.40;1.60;;;;;;;15.30;76.53;101678.88;4973249;28;21332;-80
2022/09/04 04:05:57;;;;;;;3.55;2.00;;;;;;;15.27;76.76;101672.69;5004245;28;20045;-78
2022/09/04 04:08:55;;;;;;;11.25;2.03;;;;;;;15.25;77.38;101685.09;5011099;28;20302;-78
2022/09/04 04:11:35;;;;;;;5.30;1.58;;;;;;;15.22;77.60;101688.63;4999909;28;20279;-78
2022/09/04 04:14:29;;;;;;;2.67;1.98;;;;;;;15.19;77.97;101692.16;4995724;28;20399;-79
2022/09/04 04:17:07;;;;;;;5.80;1.83;;;;;;;15.16;78.51;101685.97;5014401;28;20037;-78
2022/09/04 04:19:41;;;;;;;3.00;1.95;;;;;;;15.12;78.56;101692.19;4982119;28;20050;-78
2022/09/04 04:22:38;;;;;;;3.22;1.98;;;;;;;15.10;78.41;101697.50;5010991;28;20045;-78
2022/09/04 04:25:06;;;;;;;4.57;1.88;;;;;;;15.10;79.09;101700.16;5006634;28;20045;-78
2022/09/04 04:27:47;;;;;;;2.17;1.85;;;;;;;15.07;78.72;101700.19;5009767;28;20502;-77
2022/09/04 04:30:16;;;;;;;1.90;1.80;;;;;;;15.08;78.90;101707.22;4996272;28;20052;-77
2022/09/04 04:33:01;;;;;;;2.85;1.80;;;;;;;15.07;79.31;101723.19;5000221;28;20041;-79
2022/09/04 04:35:59;;;;;;;2.08;1.85;;;;;;;15.06;79.47;101724.94;5001007;28;20041;-79
2022/09/04 04:38:30;;;;;;;2.53;1.50;;;;;;;15.02;79.54;101724.06;5018085;28;20688;-77
2022/09/04 04:41:30;;;;;;;2.90;1.60;;;;;;;14.99;79.63;101720.53;5020546;28;20386;-80
2022/09/04 04:44:05;;;;;;;3.85;1.58;;;;;;;14.95;80.13;101716.09;5003350;28;20053;-79
2022/09/04 04:46:37;;;;;;;2.55;1.90;;;;;;;14.94;80.57;101727.63;5002002;28;20050;-78
2022/09/04 04:49:21;;;;;;;2.15;1.88;;;;;;;14.92;80.66;101727.63;4977773;28;20058;-79
2022/09/04 04:52:09;;;;;;;3.15;1.77;;;;;;;14.91;80.62;101738.22;4989558;28;20398;-78
2022/09/04 04:55:05;;;;;;;3.58;1.65;;;;;;;14.88;80.74;101730.28;4983184;28;20418;-79
2022/09/04 04:58:07;;;;;;;4.30;1.67;;;;;;;14.87;81.36;101733.81;4985339;28;20038;-78
2022/09/04 05:00:41;;;;;;;3.30;1.80;;;;;;;14.87;81.05;101747.06;4994058;28;20042;-78
2022/09/04 05:03:31;;;;;;;4.78;2.17;;;;;;;14.88;81.17;101747.09;4987063;28;20057;-78
2022/09/04 05:06:11;;;;;;;3.13;1.75;;;;;;;14.88;81.05;101756.81;4974790;28;20396;-80
2022/09/04 05:09:08;;;;;;;2.65;1.95;;;;;;;14.87;81.44;101760.34;4986199;28;20093;-79
2022/09/04 05:11:55;;;;;;;5.30;2.10;;;;;;;14.87;81.37;101768.31;4979937;28;20118;-78
2022/09/04 05:14:48;;;;;;;4.00;1.73;;;;;;;14.88;82.72;101767.44;4987151;28;20182;-78
2022/09/04 05:17:28;;;;;;;4.93;1.92;;;;;;;14.88;82.28;101778.06;5011298;28;20061;-78
2022/09/04 05:20:15;;;;;;;1.83;1.55;;;;;;;14.87;82.46;101787.75;4984154;28;20060;-79
2022/09/04 05:23:02;;;;;;;1.75;1.58;;;;;;;14.88;82.78;101784.22;5006852;28;20029;-79
2022/09/04 05:25:44;;;;;;;2.47;1.58;;;;;;;14.89;82.68;101787.75;4983840;28;20033;-79
2022/09/04 05:28:28;;;;;;;3.38;1.85;;;;;;;14.90;82.26;101787.78;5019589;28;20418;-78
2022/09/04 05:31:13;;;;;;;4.15;1.58;;;;;;;14.92;83.02;101786.00;4986502;28;20486;-80
2022/09/04 05:34:04;;;;;;;4.22;1.80;;;;;;;14.93;83.00;101794.84;4995552;28;20060;-79
2022/09/04 05:36:52;;;;;;;4.45;1.80;;;;;;;14.94;83.19;101789.53;4994538;28;20064;-78
2022/09/04 05:39:31;;;;;;;4.40;1.90;;;;;;;14.95;83.21;101793.06;5016999;28;20365;-79
2022/09/04 05:42:06;;;;;;;2.05;1.55;;;;;;;14.97;83.31;101805.47;5017294;28;20044;-79
2022/09/04 05:44:56;;;;;;;3.60;1.70;;;;;;;14.96;83.58;101808.13;5017106;28;20038;-79
2022/09/04 05:47:48;;;;;;;4.50;1.88;;;;;;;14.98;83.80;101809.00;5035046;28;20048;-79
2022/09/04 05:50:59;;;;;;;3.03;1.58;;;;;;;15.03;83.60;101804.59;4989722;28;20097;-78
2022/09/04 05:53:50;;;;;;;3.78;1.80;;;;;;;15.06;83.47;101804.56;5017633;28;20037;-79
2022/09/04 05:56:47;;;;;;;2.78;1.90;;;;;;;15.11;83.77;101812.53;4993732;28;20412;-79
2022/09/04 05:59:24;;;;;;;2.22;1.88;;;;;;;15.14;83.64;101809.88;5017575;28;20257;-79
2022/09/04 06:02:03;;;;;;;3.28;1.80;;;;;;;15.18;83.82;101815.19;5018649;28;20410;-79
2022/09/04 06:05:02;;;;;;;3.28;1.85;;;;;;;15.23;83.96;101816.97;5017955;28;20404;-79
2022/09/04 06:07:43;;;;;;;3.10;2.00;;;;;;;15.28;84.00;101825.81;4993340;28;20250;-78
2022/09/04 06:10:14;;;;;;;;;;;;;;;15.33;84.58;101826.69;4995812;28;20255;-79
2022/09/04 06:13:12;;;;;;;2.63;1.77;;;;;;;15.37;84.11;101826.69;5026571;28;19928;-79
2022/09/04 06:16:12;;;;;;;3.17;2.00;;;;;;;15.47;83.65;101832.00;5003898;28;20046;-78
2022/09/04 06:18:55;;;;;;;1.92;1.70;;;;;;;15.50;83.19;101827.56;5027390;28;20037;-79
2022/09/04 06:21:42;;;;;;;4.43;2.15;;;;;;;15.55;83.32;101833.72;5015497;28;20552;-78
2022/09/04 06:24:19;;;;;;;2.85;2.00;;;;;;;15.61;82.87;101830.19;4991113;28;20057;-79
2022/09/04 06:27:17;;;;;;;2.53;1.65;;;;;;;15.65;83.63;101831.97;4999481;28;20064;-78
2022/09/04 06:30:11;;;;;;;7.35;2.00;;;;;;;15.72;83.27;101839.00;4995612;28;20061;-79
2022/09/04 06:33:22;;;;;;;1.88;1.75;;;;;;;15.80;82.73;101831.06;5023758;28;20054;-79
2022/09/04 06:36:28;;;;;;;3.42;1.90;;;;;;;15.91;83.20;101844.31;5007638;28;20056;-79
2022/09/04 06:39:11;;;;;;;2.17;1.88;;;;;;;16.01;82.46;101834.53;4977544;28;20037;-79
2022/09/04 06:42:01;;;;;;;3.42;1.73;;;;;;;16.28;82.35;101837.09;5013698;28;20045;-81
2022/09/04 06:44:46;;;;;;;2.13;1.85;;;;;;;16.49;81.51;101833.44;5012377;28;20322;-79
2022/09/04 06:47:39;;;;;;;3.78;2.17;;;;;;;16.72;81.30;101840.38;4963646;28;20204;-79
2022/09/04 06:50:29;;;;;;;2.85;1.90;;;;;;;17.01;81.08;101839.31;5017701;28;20386;-79
2022/09/04 06:53:09;;;;;;;2.80;2.05;;;;;;;17.22;80.10;101846.25;5025064;28;20049;-81
2022/09/04 06:56:19;;;;;;;3.67;2.03;;;;;;;17.42;78.11;101838.09;4999486;28;20045;-79
2022/09/04 06:59:10;;;;;;;3.00;1.75;;;;;;;17.51;77.23;101846.88;5023885;28;20111;-80
2022/09/04 07:02:00;;;;;;;2.13;1.92;;;;;;;17.57;76.79;101837.94;5000767;28;20060;-80
2022/09/04 07:05:03;;;;;;;2.22;2.03;;;;;;;17.60;75.53;101840.59;4983555;28;20136;-78
2022/09/04 07:07:56;;;;;;;5.00;2.10;;;;;;;17.66;75.31;101850.31;5021855;28;20057;-79
2022/09/04 07:10:31;;;;;;;2.30;1.83;;;;;;;17.75;76.37;101839.53;4994700;28;20530;-79
2022/09/04 07:13:34;;;;;;;2.17;2.00;;;;;;;17.84;76.11;101842.13;5025078;28;20053;-80
2022/09/04 07:16:20;;;;;;;4.03;1.90;;;;;;;17.90;76.52;101835.84;5014446;28;20049;-81
2022/09/04 07:18:54;;;;;;;2.28;1.95;;;;;;;17.95;76.15;101839.34;5021481;28;20049;-80
2022/09/04 07:21:29;;;;;;;5.47;2.15;;;;;;;17.96;75.70;101846.44;5014687;28;20045;-78
2022/09/04 07:24:12;;;;;;;3.38;2.25;;;;;;;18.01;76.01;101838.38;5014778;28;20368;-80
2022/09/04 07:26:49;;;;;;;6.45;2.17;;;;;;;17.95;74.22;101846.47;4982006;28;20414;-79
2022/09/04 07:29:38;;;;;;;5.30;1.90;;;;;;;17.94;73.48;101842.91;5021298;28;20251;-81
2022/09/04 07:36:53;;;;;;;4.38;1.70;;;;;;;18.12;73.64;101857.81;5013666;28;20415;-78
2022/09/04 07:39:41;;;;;;;4.20;2.17;;;;;;;18.16;73.42;101859.53;5010033;28;20042;-79
2022/09/04 07:42:26;;;;;;;2.88;1.83;;;;;;;18.20;72.93;101858.59;4992560;28;20084;-79
2022/09/04 07:45:05;;;;;;;3.47;1.80;;;;;;;18.24;73.05;101857.66;5032626;28;20458;-79
2022/09/04 07:47:41;;;;;;;2.65;1.75;;;;;;;18.25;72.98;101866.56;5005230;28;20156;-80
2022/09/04 07:50:15;;;;;;;8.32;2.25;;;;;;;18.30;73.20;101867.38;4997175;28;20053;-79
2022/09/04 07:53:02;;;;;;;1.85;1.70;;;;;;;18.36;73.07;101861.09;5024486;28;20061;-79
2022/09/04 07:55:49;;;;;;;2.10;1.88;;;;;;;18.46;72.88;101868.94;5007270;28;20147;-79
2022/09/04 07:58:49;;;;;;;3.55;2.10;;;;;;;18.55;73.37;101869.72;4992860;28;20517;-78
2022/09/04 08:01:22;;;;;;;4.28;2.33;;;;;;;18.66;72.93;101859.78;5007606;28;20053;-78
2022/09/04 08:04:11;;;;;;;7.30;2.35;;;;;;;18.88;72.91;101863.03;5014738;28;20033;-79
2022/09/04 08:06:54;;;;;;;2.88;1.98;;;;;;;19.06;72.42;101869.88;5024411;28;20268;-78
2022/09/04 08:10:11;;;;;;;5.47;2.03;;;;;;;19.33;72.58;101878.34;5021433;28;20497;-79
2022/09/04 08:13:07;;;;;;;1.90;1.70;;;;;;;19.64;70.92;101878.69;4982083;28;20045;-78
2022/09/04 08:16:20;;;;;;;4.72;1.90;;;;;;;19.86;70.01;101871.19;5017515;28;20097;-79
2022/09/04 08:18:55;;;;;;;3.53;1.65;;;;;;;20.00;70.58;101879.84;4989656;28;20387;-78
2022/09/04 08:21:30;;;;;;;2.47;1.70;;;;;;;20.17;70.20;101883.94;5003982;28;20046;-78
2022/09/04 08:24:18;;;;;;;3.15;1.90;;;;;;;20.37;69.95;101892.44;4994139;28;20506;-78
2022/09/04 08:26:50;;;;;;;3.53;1.67;;;;;;;20.59;70.02;101890.19;4987249;28;20025;-78
2022/09/04 08:29:38;;;;;;;2.70;1.88;;;;;;;20.86;68.12;101893.19;4993167;28;20030;-77
2022/09/04 08:32:48;;;;;;;2.20;1.95;;;;;;;20.93;64.55;101897.50;5021586;28;20053;-78
2022/09/04 08:35:31;;;;;;;2.35;2.00;;;;;;;21.04;66.09;101905.28;4996150;28;20049;-78
2022/09/04 08:38:19;;;;;;;2.97;1.80;;;;;;;21.10;65.61;101890.88;5005258;28;20403;-78
2022/09/04 08:40:56;;;;;;;6.60;1.80;;;;;;;21.13;65.97;101893.47;5015832;28;20038;-78
2022/09/04 08:43:52;;;;;;;2.97;1.92;;;;;;;21.26;65.63;101900.28;4958812;28;20278;-78
2022/09/04 08:46:20;;;;;;;1.83;1.55;;;;;;;21.35;65.18;101899.19;4992163;28;20053;-80
2022/09/04 08:49:25;;;;;;;4.97;2.20;;;;;;;21.44;63.67;101901.66;4982495;28;20379;-77
2022/09/04 08:52:08;;;;;;;2.35;1.85;;;;;;;21.32;63.87;101901.91;4977133;28;20058;-78
2022/09/04 08:54:55;;;;;;;2.60;1.95;;;;;;;21.25;63.22;101903.00;4994907;28;20034;-78
2022/09/04 08:57:30;;;;;;;4.68;2.30;;;;;;;21.19;62.57;101904.03;4972082;28;20050;-80
2022/09/04 09:00:10;;;;;;;2.28;2.00;;;;;;;21.20;63.01;101911.16;4951715;28;20046;-77
2022/09/04 09:03:15;;;;;;;3.13;2.00;;;;;;;21.32;62.89;101908.19;4989101;28;20772;-78
2022/09/04 09:06:10;;;;;;;2.20;2.00;;;;;;;21.49;61.65;101907.75;4991027;28;20399;-78
2022/09/04 09:09:05;;;;;;;6.75;1.80;;;;;;;21.46;61.56;101907.00;4989672;28;20347;-79
2022/09/04 09:12:12;;;;;;;5.50;1.90;;;;;;;21.48;60.58;101907.84;4989046;28;20057;-78
2022/09/04 09:15:25;;;;;;;3.75;1.90;;;;;;;21.36;61.83;101906.28;4968955;28;21547;-77
2022/09/04 09:18:01;;;;;;;2.60;1.90;;;;;;;21.35;61.74;101912.59;4941208;28;20042;-77
2022/09/04 09:21:00;;;;;;;3.70;2.00;;;;;;;21.32;62.58;101915.31;4953357;28;20094;-79
2022/09/04 09:23:56;;;;;;;5.55;2.00;;;;;;;21.35;62.90;101910.78;4953365;28;20784;-78
2022/09/04 09:26:48;;;;;;;1.88;1.77;;;;;;;21.35;63.72;101915.25;4983050;28;20243;-79
2022/09/04 09:29:46;;;;;;;4.07;2.72;;;;;;;21.46;63.88;101923.09;4962264;28;20053;-78
2022/09/04 09:32:49;;;;;;;5.22;1.95;;;;;;;21.50;63.32;101914.91;5003654;28;20054;-76
2022/09/04 09:35:58;;;;;;;6.03;1.98;;;;;;;21.51;63.09;101915.78;4971195;28;20169;-77
2022/09/04 09:38:43;;;;;;;5.57;2.13;;;;;;;21.49;62.87;101907.75;4998131;28;20057;-77
2022/09/04 09:41:17;;;;;;;2.20;1.70;;;;;;;21.41;62.54;101909.75;4998560;28;20046;-78
2022/09/04 09:43:49;;;;;;;4.40;1.90;;;;;;;21.42;63.94;101912.38;5020716;28;20058;-77
2022/09/04 09:46:39;;;;;;;3.65;1.95;;;;;;;21.57;65.00;101916.50;4975821;28;20041;-78
2022/09/04 09:49:33;;;;;;;4.78;2.10;;;;;;;21.70;64.48;101901.00;5022408;28;20521;-77
2022/09/04 09:52:27;;;;;;;2.22;1.90;;;;;;;21.83;64.33;101903.31;4990865;28;20045;-77
2022/09/04 09:55:33;;;;;;;2.60;2.30;;;;;;;21.88;64.76;101901.41;5009616;28;20057;-77
2022/09/04 09:58:21;;;;;;;4.32;2.10;;;;;;;21.87;64.96;101899.63;5006532;28;20046;-77
2022/09/04 10:01:24;;;;;;;3.78;1.90;;;;;;;21.98;65.40;101897.53;4961832;28;21039;-77
2022/09/04 10:04:10;;;;;;;3.00;2.35;;;;;;;22.01;65.67;101900.16;5012207;28;20046;-75
2022/09/04 10:07:02;;;;;;;4.50;2.45;;;;;;;22.10;64.93;101899.00;5013468;28;20038;-76
2022/09/04 10:09:42;;;;;;;5.90;2.08;;;;;;;22.12;64.27;101895.34;5003243;28;20066;-78
2022/09/04 10:12:11;;;;;;;;;;;;;;;22.25;63.33;101900.34;5019225;28;20042;-76
2022/09/04 10:15:01;;;;;;;5.22;2.13;;;;;;;22.38;63.41;101893.72;4995440;28;19944;-77
2022/09/04 10:18:01;;;;;;;3.53;2.53;;;;;;;22.51;61.44;101902.31;4987732;28;20041;-76
2022/09/04 10:21:15;;;;;;;4.32;1.75;;;;;;;22.50;61.84;101893.38;5012847;28;20037;-76
2022/09/04 10:23:54;;;;;;;5.55;1.80;;;;;;;22.56;61.19;101893.19;4988296;28;20037;-75
2022/09/04 10:26:38;;;;;;;4.38;1.92;;;;;;;22.61;61.59;101894.84;5007251;28;20052;-76
2022/09/04 10:29:37;;;;;;;4.07;1.70;;;;;;;22.74;61.65;101896.22;5009536;28;20661;-76
2022/09/04 10:32:24;;;;;;;5.85;1.80;;;;;;;22.89;60.88;101898.47;4984630;28;23822;-76
2022/09/04 10:35:08;;;;;;;3.10;1.70;;;;;;;22.97;60.91;101896.41;5014432;28;20260;-76
2022/09/04 10:38:03;;;;;;;6.20;2.03;;;;;;;23.10;58.00;101898.69;5014415;28;20044;-76
2022/09/04 10:41:09;;;;;;;2.30;2.20;;;;;;;23.02;58.30;101906.13;5005665;28;20037;-77
2022/09/04 10:44:14;;;;;;;2.28;1.58;;;;;;;23.00;59.02;101900.78;4993388;28;20057;-76
2022/09/04 10:46:57;;;;;;;2.03;1.70;;;;;;;23.01;59.39;101902.56;5013883;28;20053;-75
2022/09/04 10:49:34;;;;;;;3.10;2.17;;;;;;;23.08;59.23;101903.25;4966282;28;20041;-75
2022/09/04 10:52:42;;;;;;;3.03;1.50;;;;;;;23.11;58.53;101895.09;5012951;28;20032;-74
2022/09/04 10:55:25;;;;;;;7.15;2.42;;;;;;;23.20;58.31;101899.31;4974153;28;20034;-74
2022/09/04 10:58:19;;;;;;;2.80;1.70;;;;;;;23.19;57.31;101892.16;5005516;28;20167;-75
2022/09/04 11:01:03;;;;;;;4.53;2.00;;;;;;;23.11;57.42;101898.66;4995151;28;20045;-83
2022/09/04 11:03:50;;;;;;;2.10;1.90;;;;;;;23.16;57.90;101890.47;4997038;28;20034;-83
2022/09/04 11:06:48;;;;;;;2.28;1.70;;;;;;;23.33;57.28;101897.97;5015473;28;20044;-83
2022/09/04 11:09:48;;;;;;;6.55;2.00;;;;;;;23.44;57.50;101897.59;4991857;28;20033;-82
2022/09/04 11:12:35;;;;;;;;;;;;;;;23.42;55.85;101896.75;5029248;28;20097;-84
2022/09/04 11:15:41;;;;;;;4.57;1.83;;;;;;;23.42;55.37;101900.34;5002427;28;19928;-83
2022/09/04 11:18:49;;;;;;;3.17;2.20;;;;;;;23.43;56.91;101896.72;5018480;28;20049;-76
2022/09/04 11:21:42;;;;;;;3.38;2.00;;;;;;;23.47;57.21;101892.09;5011608;28;20053;-75
2022/09/04 11:24:13;;;;;;;2.60;1.90;;;;;;;23.50;55.96;101900.97;4991420;28;20053;-74
2022/09/04 11:27:00;;;;;;;1.88;1.77;;;;;;;23.56;56.49;101897.19;5007016;28;20415;-76
2022/09/04 11:30:10;;;;;;;5.07;1.88;;;;;;;23.67;55.78;101900.38;4990427;28;20312;-77
2022/09/04 11:32:51;;;;;;;4.32;1.60;;;;;;;23.77;55.31;101900.06;5016863;28;20049;-75
2022/09/04 11:35:41;;;;;;;1.73;1.63;;;;;;;23.81;55.11;101904.41;4990864;28;20395;-76
2022/09/04 11:38:38;;;;;;;2.47;1.92;;;;;;;23.91;55.47;101901.34;4991911;28;20037;-76
2022/09/04 11:41:16;;;;;;;6.38;1.60;;;;;;;23.95;54.84;101910.19;5004950;28;20041;-76
2022/09/04 11:44:13;;;;;;;2.40;1.80;;;;;;;24.05;55.44;101905.34;4983911;28;21252;-76
2022/09/04 11:46:58;;;;;;;3.72;1.85;;;;;;;24.09;53.73;101902.47;5015880;28;20262;-76
2022/09/04 11:49:46;;;;;;;4.68;1.80;;;;;;;24.08;53.72;101900.75;4985755;28;20045;-76
2022/09/04 11:52:46;;;;;;;1.75;1.65;;;;;;;24.16;53.76;101899.56;5015199;28;20044;-77
2022/09/04 11:55:39;;;;;;;2.00;1.75;;;;;;;24.30;54.01;101900.78;5004413;28;20054;-76
2022/09/04 11:58:49;;;;;;;4.00;1.90;;;;;;;24.46;52.61;101901.09;5019192;28;20046;-76
2022/09/04 12:01:19;;;;;;;3.42;1.65;;;;;;;24.47;53.24;101900.16;4879613;29;20071;-76
2022/09/04 12:04:22;;;;;;;2.88;1.65;;;;;;;24.60;53.08;101897.03;4992748;28;20049;-76
2022/09/04 12:07:12;;;;;;;3.75;1.90;;;;;;;24.70;52.79;101898.41;4976855;28;20057;-77
2022/09/04 12:10:05;;;;;;;3.50;1.77;;;;;;;24.77;51.57;101904.47;4996373;28;20038;-77
2022/09/04 12:13:00;;;;;;;2.00;1.70;;;;;;;24.88;52.48;101896.81;4987099;28;20414;-76
2022/09/04 12:15:55;;;;;;;6.28;1.83;;;;;;;24.96;52.20;101891.13;4997835;28;20038;-76
2022/09/04 12:18:50;;;;;;;2.20;1.75;;;;;;;25.05;52.42;101890.75;4983474;28;20045;-77
2022/09/04 12:21:33;;;;;;;3.15;1.70;;;;;;;25.13;50.86;101887.72;4980473;28;20928;-76
2022/09/04 12:24:47;;;;;;;2.17;1.48;;;;;;;25.23;49.54;101898.06;4983843;28;20400;-76
2022/09/04 12:27:20;;;;;;;5.13;1.65;;;;;;;25.26;51.10;101892.56;4999989;28;20133;-80
2022/09/04 12:29:55;;;;;;;3.90;1.25;;;;;;;25.34;50.98;101894.94;4992343;28;20537;-78
2022/09/04 12:32:45;;;;;;;1.75;1.65;;;;;;;25.41;50.06;101896.44;5018297;28;20049;-79
2022/09/04 12:35:19;;;;;;;;;;;;;;;25.39;48.07;101901.03;5011091;28;20405;-79
2022/09/04 12:38:00;;;;;;;6.18;1.65;;;;;;;25.36;49.73;101892.19;4975859;28;20419;-78
2022/09/04 12:40:33;;;;;;;3.88;1.50;;;;;;;25.42;50.13;101892.78;4998447;28;20045;-79
2022/09/04 12:43:21;;;;;;;2.25;1.48;;;;;;;25.55;48.22;101890.44;4992567;28;20058;-78
2022/09/04 12:46:20;;;;;;;2.45;1.52;;;;;;;25.63;48.96;101896.41;4992027;28;20172;-78
2022/09/04 12:49:14;;;;;;;7.37;1.43;;;;;;;25.68;49.13;101886.25;4996258;28;21554;-79
2022/09/04 12:51:52;;;;;;;3.92;1.50;;;;;;;25.74;48.45;101903.13;4978247;28;20306;-77
2022/09/04 12:54:57;;;;;;;7.30;2.00;;;;;;;25.77;47.23;101894.91;4991887;28;20034;-77
2022/09/04 12:57:54;;;;;;;1.70;1.60;;;;;;;25.80;47.58;101892.06;5004111;28;20050;-78
2022/09/04 13:00:27;;;;;;;4.38;1.77;;;;;;;25.73;47.94;101885.19;4998310;28;20049;-78
2022/09/04 13:03:28;;;;;;;3.65;1.58;;;;;;;25.70;48.27;101885.31;4996482;28;20053;-78
2022/09/04 13:06:09;;;;;;;2.25;1.88;;;;;;;25.63;49.03;101891.00;4998800;28;20034;-78
2022/09/04 13:08:51;;;;;;;3.38;1.60;;;;;;;25.55;49.50;101887.75;4974951;28;20139;-78